Huvudsida
METAR-TAF:

METAR-TAF

Flygplatser :

Ivalos flygplats

Ivalo, Finland

latitud: 68-37N, longitud: 027-25E, höjd: 147 m

Aktuellt väderrapport

Denna rapport gjordes för 14 minuter sedan, klockan 01:20 UTC
Vind 5 kt från väst/sydväst
Temperatur 2°C
Fuktighet 100%
Tryck 1008 hPa
Sikt 10 km eller mer
Inga moln under 1 500 m eller inga cumulonimbus

METAR: EFIV 220120Z AUTO 25005KT CAVOK 02/02 Q1008

Tid: 04:34 (01:34 UTC)


TAF: saknas

Aktuella väderrapporter och prognoser från 4000 flygplatser (METAR- och TAF-rapporter).

De tillgängliga stationerna syns som gula och röda prickar på kartan.

För musen över prickarna för att se namnen på stationerna.

Klicka sedan för att få väderrapporter och prognoser.

För att ändra kartan: Klicka på de gröna knapparna med ett svart kors på för att zooma in; den gröna knappen med ett streck på för att zooma ut; eller på de gröna pilarna för angränsande kartor.


METAR-TAF: